Time;durP1;ratioP1;P1;durP2;ratioP2;P2;SDS_P1;SDS_P2;PMS_P1;PMS_P2;Temp;Humidity;BMP_temperature;BMP_pressure;BME280_temperature;BME280_humidity;BME280_pressure;Samples;Min_cycle;Max_cycle;Signal;HPM_P1;HPM_P2
2021/10/06 00:00:44;;;;;;;2.08;0.60;;;11.20;99.90;;;;;;1939739;71;21052;-80
2021/10/06 00:03:10;;;;;;;1.10;0.60;;;11.30;99.90;;;;;;1932605;72;21142;-80
2021/10/06 00:05:36;;;;;;;2.10;0.53;;;11.50;99.90;;;;;;1919123;72;21061;-80
2021/10/06 00:08:04;;;;;;;2.80;0.68;;;11.60;99.90;;;;;;1932153;73;21204;-80
2021/10/06 00:10:30;;;;;;;1.25;0.57;;;11.70;99.90;;;;;;1938775;72;21435;-80
2021/10/06 00:12:56;;;;;;;1.52;0.53;;;11.80;99.90;;;;;;1937599;72;21554;-81
2021/10/06 00:15:23;;;;;;;0.25;0.25;;;11.70;99.90;;;;;;1939433;72;21197;-80
2021/10/06 00:17:50;;;;;;;1.17;0.50;;;11.70;99.90;;;;;;1938383;72;21075;-78
2021/10/06 00:20:16;;;;;;;1.32;0.60;;;11.60;99.90;;;;;;1939106;72;21068;-78
2021/10/06 00:22:42;;;;;;;1.95;0.70;;;11.60;99.90;;;;;;1939760;71;21060;-80
2021/10/06 00:25:08;;;;;;;2.95;0.68;;;11.50;99.90;;;;;;1927635;72;21064;-80
2021/10/06 00:27:35;;;;;;;4.95;0.93;;;11.40;99.90;;;;;;1928691;72;21131;-81
2021/10/06 00:30:01;;;;;;;1.82;0.75;;;11.30;99.90;;;;;;1932134;72;21137;-80
2021/10/06 00:32:27;;;;;;;5.30;0.85;;;11.30;99.90;;;;;;1940923;72;21216;-80
2021/10/06 00:34:53;;;;;;;1.35;0.78;;;11.30;99.90;;;;;;1935397;72;21073;-80
2021/10/06 00:37:19;;;;;;;2.65;0.90;;;11.10;99.90;;;;;;1941689;72;21063;-80
2021/10/06 00:39:47;;;;;;;4.58;0.82;;;11.10;99.90;;;;;;1939612;72;21060;-80
2021/10/06 00:42:13;;;;;;;3.17;0.80;;;11.10;99.90;;;;;;1926239;72;21094;-80
2021/10/06 00:44:39;;;;;;;0.90;0.50;;;11.00;99.90;;;;;;1943595;72;21135;-81
2021/10/06 00:47:05;;;;;;;1.70;0.70;;;11.00;99.90;;;;;;1939527;73;21041;-80
2021/10/06 00:49:32;;;;;;;1.15;0.60;;;11.00;99.90;;;;;;1934881;72;21184;-80
2021/10/06 00:51:58;;;;;;;3.05;1.00;;;10.90;99.90;;;;;;1926517;73;21523;-80
2021/10/06 00:54:24;;;;;;;0.88;0.53;;;10.80;99.90;;;;;;1933246;72;21546;-80
2021/10/06 00:56:50;;;;;;;0.78;0.47;;;10.70;99.90;;;;;;1930945;72;21437;-79
2021/10/06 00:59:16;;;;;;;5.33;1.17;;;10.60;99.90;;;;;;1943115;72;21139;-80
2021/10/06 01:01:42;;;;;;;0.93;0.60;;;10.60;99.90;;;;;;1938101;72;21208;-80
2021/10/06 01:04:08;;;;;;;1.82;0.85;;;10.50;99.90;;;;;;1944477;72;21205;-80
2021/10/06 01:06:37;;;;;;;4.45;1.00;;;10.50;99.90;;;;;;1946797;73;21088;-80
2021/10/06 01:09:04;;;;;;;3.10;0.85;;;10.50;99.90;;;;;;1918824;72;21632;-80
2021/10/06 01:11:30;;;;;;;1.75;0.93;;;10.50;99.90;;;;;;1945056;72;21095;-80
2021/10/06 01:13:56;;;;;;;2.62;0.93;;;10.40;99.90;;;;;;1938432;72;21068;-81
2021/10/06 01:16:22;;;;;;;2.27;0.75;;;10.30;99.90;;;;;;1937814;72;21131;-81
2021/10/06 01:18:48;;;;;;;1.07;0.80;;;10.40;99.90;;;;;;1933653;72;21064;-80
2021/10/06 01:21:14;;;;;;;2.27;0.80;;;10.30;99.90;;;;;;1924163;72;21038;-81
2021/10/06 01:23:40;;;;;;;2.52;0.88;;;10.20;99.90;;;;;;1929027;72;21061;-80
2021/10/06 01:26:06;;;;;;;1.05;0.50;;;10.10;99.90;;;;;;1945608;72;21072;-79
2021/10/06 01:28:34;;;;;;;3.80;0.80;;;10.10;99.90;;;;;;1936622;72;21065;-79
2021/10/06 01:31:00;;;;;;;0.70;0.70;;;10.00;99.90;;;;;;1937757;72;21049;-79
2021/10/06 01:33:26;;;;;;;1.20;0.65;;;10.10;99.90;;;;;;1935099;72;21068;-79
2021/10/06 01:35:52;;;;;;;1.12;0.60;;;10.00;99.90;;;;;;1930671;72;21052;-79
2021/10/06 01:38:19;;;;;;;3.45;0.70;;;10.00;99.90;;;;;;1934892;72;21123;-80
2021/10/06 01:40:45;;;;;;;3.33;0.80;;;9.90;99.90;;;;;;1952423;72;21056;-80
2021/10/06 01:43:11;;;;;;;3.42;1.15;;;9.80;99.90;;;;;;1926887;72;21234;-81
2021/10/06 01:45:37;;;;;;;1.42;0.70;;;9.80;99.90;;;;;;1953327;72;21194;-81
2021/10/06 01:48:03;;;;;;;2.52;0.90;;;9.80;99.90;;;;;;1929689;73;21464;-80
2021/10/06 01:50:29;;;;;;;1.15;0.70;;;9.80;99.90;;;;;;1925092;72;21048;-80
2021/10/06 01:52:55;;;;;;;1.15;0.60;;;9.70;99.90;;;;;;1944446;72;21042;-81
2021/10/06 01:55:21;;;;;;;2.65;0.93;;;9.70;99.90;;;;;;1935416;72;21567;-81
2021/10/06 01:57:49;;;;;;;3.20;0.80;;;9.60;99.90;;;;;;1948992;72;21209;-80
2021/10/06 02:00:15;;;;;;;1.87;0.90;;;9.70;99.90;;;;;;1945605;72;21269;-80
2021/10/06 02:02:41;;;;;;;1.05;0.60;;;9.70;99.90;;;;;;1918680;74;21037;-81
2021/10/06 02:05:07;;;;;;;1.07;0.65;;;9.70;99.90;;;;;;1935952;73;21069;-80
2021/10/06 02:07:33;;;;;;;7.05;0.80;;;9.70;99.90;;;;;;1937658;72;21128;-81
2021/10/06 02:10:00;;;;;;;2.45;0.70;;;9.70;99.90;;;;;;1943584;73;21125;-80
2021/10/06 02:12:26;;;;;;;2.37;1.05;;;9.80;99.90;;;;;;1929385;72;21110;-81
2021/10/06 02:14:52;;;;;;;1.52;0.80;;;9.80;99.90;;;;;;1941257;73;21057;-80
2021/10/06 02:17:18;;;;;;;3.05;0.98;;;9.90;99.90;;;;;;1934270;73;21133;-81
2021/10/06 02:19:44;;;;;;;1.10;0.62;;;9.80;99.90;;;;;;1941765;73;21062;-81
2021/10/06 02:22:10;;;;;;;2.17;0.70;;;9.80;99.90;;;;;;1941816;72;21060;-80
2021/10/06 02:24:36;;;;;;;2.35;0.75;;;9.80;99.90;;;;;;1945782;72;21141;-80
2021/10/06 02:27:02;;;;;;;2.45;0.72;;;10.00;99.90;;;;;;1952044;72;21037;-80
2021/10/06 02:29:28;;;;;;;3.25;1.20;;;10.00;99.90;;;;;;1941232;72;21071;-79
2021/10/06 02:31:55;;;;;;;1.95;0.65;;;10.20;99.90;;;;;;1937733;73;21126;-80
2021/10/06 02:34:22;;;;;;;2.47;0.70;;;10.20;99.90;;;;;;1941142;72;21465;-80
2021/10/06 02:36:48;;;;;;;1.17;0.68;;;10.30;99.90;;;;;;1951964;72;21188;-80
2021/10/06 02:39:14;;;;;;;2.52;1.05;;;10.30;99.90;;;;;;1949686;72;21040;-79
2021/10/06 02:41:40;;;;;;;1.60;0.75;;;10.30;99.90;;;;;;1938859;72;21063;-80
2021/10/06 02:44:07;;;;;;;2.02;0.82;;;10.30;99.90;;;;;;1939930;72;21142;-79
2021/10/06 02:46:37;;;;;;;1.50;0.70;;;10.30;99.90;;;;;;1929076;73;21072;-80
2021/10/06 02:49:03;;;;;;;;;;;10.30;99.90;;;;;;1944945;73;21222;-79
2021/10/06 02:51:29;;;;;;;1.90;0.78;;;10.30;99.90;;;;;;1936433;72;20122;-80
2021/10/06 02:53:55;;;;;;;1.32;0.78;;;10.30;99.90;;;;;;1943541;72;21125;-81
2021/10/06 02:56:21;;;;;;;3.20;0.60;;;10.30;99.90;;;;;;1953340;72;21118;-81
2021/10/06 02:58:49;;;;;;;2.22;0.80;;;10.30;99.90;;;;;;1940127;72;21060;-81
2021/10/06 03:01:15;;;;;;;2.52;0.78;;;10.30;99.90;;;;;;1945498;73;21123;-81
2021/10/06 03:03:41;;;;;;;2.17;0.68;;;10.40;99.90;;;;;;1935714;73;21065;-80
2021/10/06 03:06:07;;;;;;;3.70;0.90;;;10.50;99.90;;;;;;1938584;73;21065;-80
2021/10/06 03:08:35;;;;;;;0.93;0.47;;;10.50;99.90;;;;;;1951251;72;21141;-81
2021/10/06 03:11:01;;;;;;;4.60;0.90;;;10.50;99.90;;;;;;1940325;72;21503;-81
2021/10/06 03:13:27;;;;;;;1.85;0.88;;;10.60;99.90;;;;;;1944474;73;21432;-81
2021/10/06 03:15:53;;;;;;;1.95;0.75;;;10.70;99.90;;;;;;1942427;73;21503;-81
2021/10/06 03:18:19;;;;;;;3.35;0.62;;;10.80;99.90;;;;;;1946792;73;21565;-80
2021/10/06 03:20:45;;;;;;;4.75;0.80;;;11.00;99.90;;;;;;1952598;72;21488;-80
2021/10/06 03:23:12;;;;;;;0.88;0.40;;;11.10;99.90;;;;;;1937887;72;21146;-80
2021/10/06 03:25:38;;;;;;;1.70;0.60;;;11.10;99.90;;;;;;1942678;72;21064;-80
2021/10/06 03:28:04;;;;;;;1.05;0.60;;;11.10;99.90;;;;;;1916331;73;21114;-81
2021/10/06 03:30:30;;;;;;;0.82;0.42;;;11.10;99.90;;;;;;1953547;72;21068;-81
2021/10/06 03:32:56;;;;;;;4.78;0.70;;;11.00;99.90;;;;;;1931473;73;21209;-81
2021/10/06 03:35:23;;;;;;;1.25;0.57;;;11.00;99.90;;;;;;1939706;73;21142;-80
2021/10/06 03:37:51;;;;;;;1.40;0.62;;;11.00;99.90;;;;;;1948221;72;21197;-80
2021/10/06 03:40:17;;;;;;;3.55;1.00;;;11.00;99.90;;;;;;1936349;72;21305;-81
2021/10/06 03:42:43;;;;;;;3.70;0.95;;;11.00;99.90;;;;;;1942263;73;21034;-79
2021/10/06 03:45:09;;;;;;;2.77;0.88;;;10.90;99.90;;;;;;1934870;72;21076;-79
2021/10/06 03:47:37;;;;;;;0.95;0.40;;;10.90;99.90;;;;;;1945607;73;21063;-81
2021/10/06 03:50:03;;;;;;;2.40;0.60;;;10.90;99.90;;;;;;1945316;72;21152;-81
2021/10/06 03:52:29;;;;;;;1.22;0.78;;;10.90;99.90;;;;;;1939361;73;21045;-81
2021/10/06 03:54:56;;;;;;;4.92;0.80;;;10.90;99.90;;;;;;1946313;72;21125;-81
2021/10/06 03:57:22;;;;;;;2.00;0.80;;;10.80;99.90;;;;;;1944978;73;21111;-81
2021/10/06 03:59:48;;;;;;;1.07;0.53;;;10.80;99.90;;;;;;1942728;72;21528;-81
2021/10/06 04:02:14;;;;;;;2.35;0.88;;;10.90;99.90;;;;;;1942896;73;21479;-81
2021/10/06 04:04:41;;;;;;;3.02;0.62;;;10.80;99.90;;;;;;1957339;73;21125;-81
2021/10/06 04:07:07;;;;;;;1.82;0.60;;;10.80;99.90;;;;;;1942711;72;21055;-81
2021/10/06 04:09:33;;;;;;;2.47;0.78;;;10.80;99.90;;;;;;1931597;73;21107;-81
2021/10/06 04:11:59;;;;;;;1.12;0.50;;;10.80;99.90;;;;;;1929475;72;21121;-80
2021/10/06 04:14:25;;;;;;;3.05;0.82;;;10.70;99.90;;;;;;1947980;73;21064;-81
2021/10/06 04:16:51;;;;;;;1.87;0.80;;;10.70;99.90;;;;;;1941980;73;21065;-79
2021/10/06 04:19:17;;;;;;;2.92;0.53;;;10.60;99.90;;;;;;1937618;72;21064;-81
2021/10/06 04:21:43;;;;;;;1.72;0.55;;;10.60;99.90;;;;;;1945117;73;21199;-82
2021/10/06 04:24:10;;;;;;;1.57;0.50;;;10.60;99.90;;;;;;1949395;72;21129;-84
2021/10/06 04:26:36;;;;;;;4.05;0.80;;;10.60;99.90;;;;;;1951908;72;21055;-84
2021/10/06 04:29:02;;;;;;;4.30;0.78;;;10.70;99.90;;;;;;1932930;73;21064;-83
2021/10/06 04:31:29;;;;;;;9.15;0.50;;;10.80;99.90;;;;;;1946588;72;21045;-84
2021/10/06 04:33:55;;;;;;;1.67;0.50;;;10.80;99.90;;;;;;1948385;72;21085;-83
2021/10/06 04:36:23;;;;;;;3.12;0.62;;;10.80;99.90;;;;;;1944636;72;21056;-83
2021/10/06 04:38:49;;;;;;;7.50;0.85;;;10.80;99.90;;;;;;1939617;73;21140;-83
2021/10/06 04:41:15;;;;;;;10.95;0.98;;;10.80;99.90;;;;;;1931966;73;21056;-83
2021/10/06 04:43:41;;;;;;;2.33;0.72;;;10.90;99.90;;;;;;1942633;73;21111;-84
2021/10/06 04:46:07;;;;;;;0.90;0.62;;;10.90;99.90;;;;;;1945787;72;21056;-84
2021/10/06 04:48:34;;;;;;;2.87;0.62;;;10.80;99.90;;;;;;1950870;72;21063;-85
2021/10/06 04:51:00;;;;;;;0.95;0.75;;;10.90;99.90;;;;;;1947260;72;21065;-83
2021/10/06 04:53:26;;;;;;;4.33;0.57;;;10.90;99.90;;;;;;1947032;73;21060;-86
2021/10/06 04:55:52;;;;;;;1.20;0.60;;;10.90;99.90;;;;;;1937883;72;21131;-85
2021/10/06 04:58:18;;;;;;;3.17;0.93;;;10.80;99.90;;;;;;1955355;72;21183;-85
2021/10/06 05:00:44;;;;;;;2.27;0.90;;;10.80;99.90;;;;;;1939946;72;21060;-84
2021/10/06 05:03:10;;;;;;;4.12;1.00;;;10.90;99.90;;;;;;1941352;72;21060;-85
2021/10/06 05:05:37;;;;;;;3.20;0.70;;;10.80;99.90;;;;;;1927523;72;21052;-85
2021/10/06 05:08:03;;;;;;;6.45;0.60;;;10.90;99.90;;;;;;1946749;71;21165;-84
2021/10/06 05:10:29;;;;;;;2.67;0.70;;;10.90;99.90;;;;;;1942768;73;21069;-81
2021/10/06 05:12:55;;;;;;;1.72;0.57;;;10.90;99.90;;;;;;1939246;71;21061;-78
2021/10/06 05:15:21;;;;;;;3.42;0.70;;;11.00;99.90;;;;;;1942018;72;21472;-81
2021/10/06 05:17:47;;;;;;;1.22;0.55;;;11.00;99.90;;;;;;1943138;72;21529;-83
2021/10/06 05:20:13;;;;;;;5.35;2.62;;;11.00;99.90;;;;;;1936536;72;21525;-77
2021/10/06 05:22:39;;;;;;;4.62;0.93;;;11.00;99.90;;;;;;1930828;72;21123;-80
2021/10/06 05:25:05;;;;;;;1.62;0.60;;;11.00;99.90;;;;;;1950451;73;21120;-80
2021/10/06 05:27:33;;;;;;;1.35;0.62;;;11.00;99.90;;;;;;1931742;72;21147;-78
2021/10/06 05:29:59;;;;;;;2.05;0.80;;;11.00;99.90;;;;;;1944994;72;21106;-80
2021/10/06 05:32:25;;;;;;;1.95;0.72;;;11.00;99.90;;;;;;1941754;72;21044;-80
2021/10/06 05:34:51;;;;;;;4.20;1.07;;;11.00;99.90;;;;;;1941594;72;21075;-81
2021/10/06 05:37:17;;;;;;;2.30;1.02;;;11.00;99.90;;;;;;1947722;71;21061;-80
2021/10/06 05:39:43;;;;;;;1.70;0.90;;;11.00;99.90;;;;;;1935307;72;21030;-80
2021/10/06 05:42:09;;;;;;;1.55;0.70;;;11.10;99.90;;;;;;1928550;71;21471;-80
2021/10/06 05:44:37;;;;;;;3.37;0.88;;;11.10;99.90;;;;;;1938364;72;21880;-80
2021/10/06 05:47:03;;;;;;;11.60;0.98;;;11.00;99.90;;;;;;1943209;71;21076;-81
2021/10/06 05:49:29;;;;;;;2.58;0.70;;;11.10;99.90;;;;;;1933715;72;21055;-80
2021/10/06 05:51:55;;;;;;;5.37;0.80;;;11.10;99.90;;;;;;1943943;73;21142;-85
2021/10/06 05:54:22;;;;;;;2.72;0.90;;;11.20;99.90;;;;;;1940743;72;21147;-87
2021/10/06 05:56:48;;;;;;;4.33;0.65;;;11.20;99.90;;;;;;1952297;73;21129;-84
2021/10/06 05:59:14;;;;;;;0.65;0.50;;;11.20;99.90;;;;;;1932315;72;21068;-85
2021/10/06 06:01:40;;;;;;;1.37;0.78;;;11.20;99.90;;;;;;1933578;72;21078;-86
2021/10/06 06:04:06;;;;;;;1.27;0.70;;;11.20;99.90;;;;;;1936418;72;21060;-85
2021/10/06 06:06:32;;;;;;;2.55;0.80;;;11.20;99.90;;;;;;1939112;72;21421;-83
2021/10/06 06:08:58;;;;;;;5.50;1.10;;;11.20;99.90;;;;;;1926177;72;21464;-84
2021/10/06 06:11:26;;;;;;;1.85;0.80;;;11.20;99.90;;;;;;1924254;72;21440;-84
2021/10/06 06:13:52;;;;;;;1.75;0.65;;;11.20;99.90;;;;;;1949443;72;21134;-84
2021/10/06 06:16:18;;;;;;;3.42;0.60;;;11.30;99.90;;;;;;1940570;73;21073;-84
2021/10/06 06:18:44;;;;;;;2.02;0.70;;;11.30;99.90;;;;;;1934647;71;21178;-84
2021/10/06 06:21:10;;;;;;;0.98;0.80;;;11.20;99.90;;;;;;1957417;72;21115;-84
2021/10/06 06:23:37;;;;;;;2.70;1.00;;;11.20;99.90;;;;;;1946196;72;21142;-83
2021/10/06 06:26:03;;;;;;;2.75;0.62;;;11.20;99.90;;;;;;1949281;73;21433;-86
2021/10/06 06:28:29;;;;;;;1.22;0.50;;;11.30;99.90;;;;;;1936945;73;21029;-85
2021/10/06 06:30:55;;;;;;;2.67;0.80;;;11.30;99.90;;;;;;1942790;72;21138;-78
2021/10/06 06:33:21;;;;;;;3.62;0.80;;;11.40;99.90;;;;;;1930131;73;21066;-73
2021/10/06 06:35:47;;;;;;;1.98;0.78;;;11.40;99.90;;;;;;1946684;72;21130;-74
2021/10/06 06:38:14;;;;;;;7.83;1.20;;;11.40;99.90;;;;;;1921588;72;21038;-74
2021/10/06 06:40:41;;;;;;;1.82;0.70;;;11.40;99.90;;;;;;1926191;72;21070;-74
2021/10/06 06:43:07;;;;;;;1.77;0.80;;;11.40;99.90;;;;;;1929603;73;21629;-72
2021/10/06 06:45:33;;;;;;;5.80;0.98;;;11.40;99.90;;;;;;1928341;72;21171;-75
2021/10/06 06:48:02;;;;;;;4.08;0.90;;;11.40;99.90;;;;;;1932918;72;21069;-75
2021/10/06 06:50:28;;;;;;;2.12;0.72;;;11.30;99.90;;;;;;1933616;72;21148;-80
2021/10/06 06:52:55;;;;;;;4.08;0.90;;;11.30;99.90;;;;;;1942483;72;21261;-79
2021/10/06 06:55:21;;;;;;;4.42;0.75;;;11.30;99.90;;;;;;1933673;72;21516;-78
2021/10/06 06:57:47;;;;;;;4.20;0.72;;;11.40;99.90;;;;;;1943627;73;21493;-79
2021/10/06 07:00:13;;;;;;;3.92;0.98;;;11.60;99.90;;;;;;1946625;73;21569;-79
2021/10/06 07:02:39;;;;;;;4.20;1.05;;;11.70;99.90;;;;;;1940242;72;21421;-79
2021/10/06 07:05:05;;;;;;;1.62;0.60;;;11.70;99.90;;;;;;1938581;72;21078;-83
2021/10/06 07:07:32;;;;;;;4.37;0.90;;;11.80;99.90;;;;;;1947656;73;21066;-83
2021/10/06 07:09:58;;;;;;;2.08;0.60;;;11.70;99.90;;;;;;1944254;72;21189;-84
2021/10/06 07:12:25;;;;;;;1.85;0.62;;;11.70;99.90;;;;;;1941780;72;21047;-83
2021/10/06 07:14:51;;;;;;;1.52;0.55;;;11.70;99.90;;;;;;1927295;73;21188;-83
2021/10/06 07:17:18;;;;;;;0.93;0.50;;;11.70;99.90;;;;;;1938792;72;21141;-83
2021/10/06 07:19:46;;;;;;;2.20;0.93;;;11.70;99.90;;;;;;1946159;72;21153;-83
2021/10/06 07:22:12;;;;;;;5.58;0.95;;;11.80;99.90;;;;;;1941088;72;21551;-85
2021/10/06 07:24:38;;;;;;;2.42;1.00;;;11.90;99.90;;;;;;1924756;72;21125;-83
2021/10/06 07:27:05;;;;;;;1.55;0.82;;;11.90;99.90;;;;;;1928888;72;21141;-82
2021/10/06 07:29:31;;;;;;;2.98;0.93;;;12.00;99.90;;;;;;1929846;72;21067;-83
2021/10/06 07:31:57;;;;;;;1.42;0.80;;;11.90;99.90;;;;;;1917493;73;21063;-83
2021/10/06 07:34:23;;;;;;;2.00;0.90;;;11.90;99.90;;;;;;1931453;73;21133;-82
2021/10/06 07:36:49;;;;;;;2.22;0.90;;;12.10;99.90;;;;;;1943174;72;21129;-84
2021/10/06 07:39:15;;;;;;;1.75;0.62;;;12.20;99.90;;;;;;1933756;72;21067;-83
2021/10/06 07:41:41;;;;;;;6.95;0.80;;;12.40;99.90;;;;;;1933488;72;21137;-83
2021/10/06 07:44:07;;;;;;;2.47;0.80;;;12.70;99.90;;;;;;1946006;72;21067;-83
2021/10/06 07:46:34;;;;;;;2.33;0.75;;;12.80;99.90;;;;;;1917137;72;21074;-83
2021/10/06 07:49:00;;;;;;;1.50;0.60;;;12.80;99.90;;;;;;1933121;72;21156;-83
2021/10/06 07:51:26;;;;;;;3.77;0.90;;;12.90;99.90;;;;;;1937363;72;21083;-83
2021/10/06 07:53:52;;;;;;;6.22;0.85;;;13.10;99.90;;;;;;1937082;71;21124;-83
2021/10/06 07:56:20;;;;;;;3.08;1.00;;;13.20;99.90;;;;;;1934734;73;21100;-83
2021/10/06 07:58:47;;;;;;;2.45;0.78;;;13.30;99.90;;;;;;1935752;72;21186;-83
2021/10/06 08:01:13;;;;;;;2.33;0.57;;;13.40;99.90;;;;;;1933802;72;21063;-82
2021/10/06 08:03:41;;;;;;;6.72;1.00;;;13.70;99.90;;;;;;1938260;72;21067;-83
2021/10/06 08:06:07;;;;;;;9.18;1.02;;;13.90;99.90;;;;;;1931093;72;21113;-82
2021/10/06 08:08:33;;;;;;;4.25;1.10;;;14.00;99.90;;;;;;1950675;71;21044;-82
2021/10/06 08:10:59;;;;;;;3.05;0.80;;;14.10;99.90;;;;;;1934768;72;21201;-83
2021/10/06 08:13:27;;;;;;;1.55;0.70;;;14.10;99.90;;;;;;1934943;72;21132;-84
2021/10/06 08:15:54;;;;;;;2.30;0.70;;;13.90;99.90;;;;;;1943554;71;21108;-82
2021/10/06 08:18:20;;;;;;;2.30;0.93;;;13.70;99.90;;;;;;1942485;72;21062;-80
2021/10/06 08:20:46;;;;;;;2.85;1.05;;;13.80;99.90;;;;;;1929792;72;21055;-80
2021/10/06 08:23:15;;;;;;;4.80;1.30;;;14.00;99.90;;;;;;1931484;73;21132;-77
2021/10/06 08:25:40;;;;;;;2.25;0.70;;;14.30;99.90;;;;;;1931293;73;21096;-75
2021/10/06 08:28:06;;;;;;;3.35;0.75;;;14.40;99.90;;;;;;1934978;72;21486;-74
2021/10/06 08:30:33;;;;;;;6.12;1.00;;;14.10;99.90;;;;;;1929960;73;21031;-74
2021/10/06 08:32:59;;;;;;;5.10;0.95;;;14.00;99.90;;;;;;1939392;73;21467;-73
2021/10/06 08:35:25;;;;;;;1.72;0.70;;;14.20;99.90;;;;;;1932244;72;21571;-73
2021/10/06 08:37:51;;;;;;;6.50;0.80;;;14.10;99.90;;;;;;1929761;73;21541;-74
2021/10/06 08:40:17;;;;;;;2.58;0.98;;;14.10;99.90;;;;;;1939967;72;21090;-74
2021/10/06 08:42:43;;;;;;;3.95;0.82;;;14.20;99.90;;;;;;1929549;73;21478;-74
2021/10/06 08:45:09;;;;;;;3.67;1.17;;;14.20;99.90;;;;;;1929328;72;21132;-74
2021/10/06 08:47:35;;;;;;;3.30;0.80;;;14.30;99.90;;;;;;1939035;71;21059;-74
2021/10/06 08:50:02;;;;;;;1.87;0.80;;;14.50;99.90;;;;;;1940206;72;21181;-73
2021/10/06 08:52:28;;;;;;;1.98;0.90;;;14.60;99.90;;;;;;1947962;72;21059;-73
2021/10/06 08:54:54;;;;;;;3.22;1.00;;;14.50;99.90;;;;;;1935997;72;21074;-73
2021/10/06 08:57:20;;;;;;;5.87;1.20;;;14.20;99.90;;;;;;1925852;72;21177;-74
2021/10/06 08:59:46;;;;;;;2.87;0.85;;;14.00;99.90;;;;;;1936385;73;21078;-74
2021/10/06 09:02:12;;;;;;;9.75;1.02;;;13.90;99.90;;;;;;1935827;72;21057;-73
2021/10/06 09:04:39;;;;;;;2.42;0.72;;;13.90;99.90;;;;;;1921737;72;21075;-73
2021/10/06 09:07:05;;;;;;;4.53;0.90;;;13.90;99.90;;;;;;1920802;72;21058;-73
2021/10/06 09:09:31;;;;;;;5.33;1.00;;;13.70;99.90;;;;;;1943000;72;21211;-73
2021/10/06 09:11:59;;;;;;;4.30;1.10;;;13.50;99.90;;;;;;1948543;72;21039;-75
2021/10/06 09:14:25;;;;;;;1.52;0.68;;;13.40;99.90;;;;;;1944919;71;21470;-74
2021/10/06 09:16:51;;;;;;;3.45;1.10;;;13.30;99.90;;;;;;1938940;73;21059;-81
2021/10/06 09:19:17;;;;;;;5.97;1.35;;;13.20;99.90;;;;;;1931216;72;21456;-80
2021/10/06 09:21:43;;;;;;;1.60;0.90;;;13.40;99.90;;;;;;1943598;73;21454;-80
2021/10/06 09:24:11;;;;;;;1.72;0.80;;;13.50;99.90;;;;;;1915128;73;21470;-81
2021/10/06 09:26:37;;;;;;;2.37;0.85;;;13.70;99.90;;;;;;1942286;73;21104;-80
2021/10/06 09:29:03;;;;;;;4.78;1.02;;;14.00;99.90;;;;;;1933159;72;21144;-80
2021/10/06 09:31:29;;;;;;;3.67;0.93;;;14.30;99.90;;;;;;1929367;72;21177;-79
2021/10/06 09:33:55;;;;;;;2.50;1.17;;;14.60;99.90;;;;;;1927589;73;21031;-79
2021/10/06 09:36:22;;;;;;;3.85;0.93;;;14.90;99.90;;;;;;1930350;72;21075;-79
2021/10/06 09:38:48;;;;;;;2.72;0.95;;;14.80;99.90;;;;;;1932748;72;21129;-79
2021/10/06 09:41:14;;;;;;;3.37;1.45;;;14.50;99.90;;;;;;1927471;72;21071;-81
2021/10/06 09:43:40;;;;;;;3.25;0.90;;;14.30;99.90;;;;;;1923448;73;21152;-80
2021/10/06 09:46:06;;;;;;;3.40;0.75;;;14.10;99.90;;;;;;1934116;72;21189;-78
2021/10/06 09:48:32;;;;;;;1.90;0.80;;;14.10;99.90;;;;;;1940815;73;21144;-73
2021/10/06 09:50:58;;;;;;;4.40;1.20;;;14.20;99.90;;;;;;1933360;71;21137;-71
2021/10/06 09:53:24;;;;;;;3.12;0.90;;;14.50;99.90;;;;;;1923072;72;21521;-74
2021/10/06 09:55:51;;;;;;;4.00;1.07;;;14.50;99.90;;;;;;1936738;72;21077;-74
2021/10/06 09:58:17;;;;;;;3.22;0.65;;;14.70;99.90;;;;;;1930688;72;21470;-75
2021/10/06 10:00:43;;;;;;;2.22;0.75;;;14.70;99.90;;;;;;1925609;73;21572;-74
2021/10/06 10:03:10;;;;;;;2.95;0.90;;;14.80;99.90;;;;;;1915281;72;21506;-75
2021/10/06 10:05:39;;;;;;;1.65;0.80;;;14.90;99.90;;;;;;1940482;72;21117;-74
2021/10/06 10:08:04;;;;;;;2.85;1.02;;;15.10;99.90;;;;;;1951153;71;21111;-73
2021/10/06 10:10:30;;;;;;;5.22;0.90;;;15.50;99.90;;;;;;1924488;72;21070;-72
2021/10/06 10:12:58;;;;;;;1.85;0.80;;;16.00;99.90;;;;;;1941635;72;21181;-73
2021/10/06 10:15:24;;;;;;;5.28;1.07;;;15.80;99.90;;;;;;1938199;71;21477;-72
2021/10/06 10:17:50;;;;;;;4.22;0.90;;;15.50;99.90;;;;;;1944088;72;21141;-79
2021/10/06 10:20:18;;;;;;;1.82;1.35;;;15.40;99.90;;;;;;1950544;72;21129;-78
2021/10/06 10:22:45;;;;;;;1.45;0.70;;;15.10;99.90;;;;;;1938722;73;21161;-85
2021/10/06 10:25:11;;;;;;;2.80;1.10;;;14.90;99.90;;;;;;1945379;72;21041;-83
2021/10/06 10:27:37;;;;;;;2.12;0.62;;;14.40;99.90;;;;;;1936212;72;21073;-83
2021/10/06 10:30:05;;;;;;;30.55;1.45;;;13.90;99.90;;;;;;1943398;71;21067;-83
2021/10/06 10:32:31;;;;;;;6.62;1.00;;;13.80;99.90;;;;;;1929553;72;21106;-79
2021/10/06 10:35:02;;;;;;;2.95;1.07;;;13.50;99.90;;;;;;1911716;73;21190;-73
2021/10/06 10:37:25;;;;;;;8.78;1.52;;;13.30;99.90;;;;;;1919435;72;21135;-75
2021/10/06 10:39:51;;;;;;;2.10;0.90;;;13.00;99.90;;;;;;1914715;72;21074;-76
2021/10/06 10:42:17;;;;;;;3.33;1.27;;;12.90;99.90;;;;;;1921393;73;21120;-76
2021/10/06 10:44:46;;;;;;;1.98;1.05;;;13.10;99.90;;;;;;1914299;73;21064;-77
2021/10/06 10:47:11;;;;;;;4.25;0.80;;;13.10;99.90;;;;;;1938582;73;21067;-76
2021/10/06 10:49:39;;;;;;;2.12;0.70;;;13.30;99.90;;;;;;1938147;71;21217;-78
2021/10/06 10:52:05;;;;;;;8.33;0.88;;;13.20;99.90;;;;;;1942021;73;21662;-78
2021/10/06 10:54:31;;;;;;;1.98;1.10;;;13.50;99.90;;;;;;1944920;72;21474;-80
2021/10/06 10:56:57;;;;;;;2.65;1.40;;;13.80;99.90;;;;;;1942429;72;21058;-80
2021/10/06 10:59:23;;;;;;;3.22;1.10;;;14.00;99.90;;;;;;1924116;72;21478;-76
2021/10/06 11:01:51;;;;;;;3.22;0.85;;;13.70;99.90;;;;;;1941397;72;21067;-78
2021/10/06 11:04:20;;;;;;;2.47;0.78;;;13.80;99.90;;;;;;1925726;72;21556;-77
2021/10/06 11:06:46;;;;;;;3.70;0.85;;;14.20;99.90;;;;;;1951876;72;21151;-79
2021/10/06 11:09:12;;;;;;;2.35;0.80;;;14.70;99.90;;;;;;1949634;71;21067;-76
2021/10/06 11:11:39;;;;;;;6.45;0.90;;;15.40;99.90;;;;;;1934706;73;21152;-78
2021/10/06 11:14:06;;;;;;;1.20;0.70;;;15.60;99.90;;;;;;1934511;73;21559;-78
2021/10/06 11:16:32;;;;;;;1.30;0.60;;;15.20;99.90;;;;;;1933889;72;21074;-78
2021/10/06 11:18:58;;;;;;;1.82;0.80;;;15.10;99.90;;;;;;1941372;72;21055;-79
2021/10/06 11:21:24;;;;;;;4.55;0.98;;;15.10;99.90;;;;;;1911141;72;21071;-79
2021/10/06 11:23:53;;;;;;;2.70;0.90;;;15.40;99.90;;;;;;1929142;72;21112;-79
2021/10/06 11:26:18;;;;;;;1.95;0.88;;;15.90;99.90;;;;;;1922397;72;21072;-79
2021/10/06 11:28:44;;;;;;;1.60;0.72;;;16.90;99.90;;;;;;1919217;72;21058;-78
2021/10/06 11:31:11;;;;;;;5.20;0.90;;;17.30;99.90;;;;;;1918183;72;21251;-74
2021/10/06 11:33:37;;;;;;;1.02;0.50;;;17.40;99.90;;;;;;1935253;71;21255;-78
2021/10/06 11:36:03;;;;;;;7.53;1.20;;;17.50;99.90;;;;;;1925494;72;21137;-79
2021/10/06 11:38:29;;;;;;;3.52;0.65;;;16.90;99.90;;;;;;1934325;72;21059;-79
2021/10/06 11:40:55;;;;;;;1.37;0.72;;;16.80;99.90;;;;;;1939794;72;21052;-78
2021/10/06 11:43:21;;;;;;;1.45;0.70;;;17.10;99.90;;;;;;1943109;73;21059;-78
2021/10/06 11:45:47;;;;;;;1.77;0.53;;;17.10;99.90;;;;;;1922952;72;21118;-78
2021/10/06 11:48:14;;;;;;;2.72;1.10;;;16.40;99.90;;;;;;1932227;73;21070;-78
2021/10/06 11:50:43;;;;;;;4.17;1.00;;;16.10;99.90;;;;;;1937722;72;21079;-79
2021/10/06 11:53:09;;;;;;;2.58;0.75;;;16.10;99.90;;;;;;1932974;72;21211;-79
2021/10/06 11:55:35;;;;;;;3.50;1.12;;;16.30;99.90;;;;;;1942120;73;21047;-78
2021/10/06 11:58:01;;;;;;;2.37;0.75;;;17.10;99.90;;;;;;1951887;71;21058;-78
2021/10/06 12:00:28;;;;;;;2.17;0.78;;;17.50;99.90;;;;;;1942780;72;21144;-76
2021/10/06 12:02:54;;;;;;;6.83;0.70;;;17.80;99.90;;;;;;1916058;72;21125;-78
2021/10/06 12:05:20;;;;;;;3.02;0.82;;;18.30;99.90;;;;;;1934301;72;21132;-78
2021/10/06 12:07:46;;;;;;;1.35;0.70;;;19.30;99.90;;;;;;1950120;71;21067;-78
2021/10/06 12:10:12;;;;;;;1.50;0.80;;;19.30;99.90;;;;;;1937012;72;21054;-78
2021/10/06 12:12:40;;;;;;;2.27;0.78;;;19.10;99.90;;;;;;1938017;72;21056;-78
2021/10/06 12:15:06;;;;;;;0.98;0.62;;;19.00;99.90;;;;;;1945510;72;21121;-78
2021/10/06 12:17:32;;;;;;;1.80;0.50;;;19.70;99.90;;;;;;1937035;72;21075;-78
2021/10/06 12:19:58;;;;;;;1.65;0.60;;;20.20;99.90;;;;;;1924234;73;21055;-76
2021/10/06 12:22:24;;;;;;;2.70;0.50;;;19.80;99.90;;;;;;1912967;72;21534;-76
2021/10/06 12:24:50;;;;;;;0.47;0.35;;;18.00;99.90;;;;;;1934718;73;21180;-75
2021/10/06 12:27:16;;;;;;;1.00;0.60;;;17.40;99.90;;;;;;1942700;72;21070;-76
2021/10/06 12:29:42;;;;;;;4.30;0.93;;;17.10;99.90;;;;;;1938866;71;21297;-75
2021/10/06 12:32:09;;;;;;;1.47;0.60;;;17.20;99.90;;;;;;1945373;72;21052;-75
2021/10/06 12:34:35;;;;;;;2.65;0.55;;;16.90;99.90;;;;;;1930669;71;21129;-76
2021/10/06 12:37:01;;;;;;;2.77;0.60;;;16.40;99.90;;;;;;1936867;72;21145;-76
2021/10/06 12:39:27;;;;;;;2.02;0.68;;;15.90;99.90;;;;;;1935139;72;21059;-77
2021/10/06 12:41:54;;;;;;;1.15;0.45;;;15.90;99.90;;;;;;1936432;73;21044;-75